AFL1335 ULAA-UUEE
Flight info
| Callsign | AFL1335 |
|---|---|
| Flight time | 1h 22m |
| Altitude | 34000 |
| Route | K0824F340 OBIRA3K OBIRA M58 OSNAN/K0811F330 P65 UREPI/K0794F320 P65 ROMTA ROMTA3E |
| Aircraft | A320/M-SDIE2E3FGHJ1RWY/LB1U1 |
Departure
| Time | 2026-05-04 08:20 |
|---|---|
| Airport | Talagi Airport (ULAA) |
Arrival
| Time | 2026-05-04 09:42 |
|---|---|
| Airport | Sheremetyevo International Airport (UUEE) |
| Time | Latitude | Longitude | Altitude | Speed | Heading |
|---|---|---|---|---|---|
| 2026-05-04 08:04 | 64.59664 | 40.71388 | 40 ft | 0 kts | 186° |
| 2026-05-04 08:13 | 64.59676 | 40.71391 | 40 ft | 4 kts | 185° |
| 2026-05-04 08:13 | 64.59700 | 40.71396 | 37 ft | 3 kts | 185° |
| 2026-05-04 08:13 | 64.59722 | 40.71390 | 40 ft | 4 kts | 128° |
| 2026-05-04 08:13 | 64.59726 | 40.71340 | 40 ft | 4 kts | 85° |
| 2026-05-04 08:14 | 64.59726 | 40.71301 | 40 ft | 0 kts | 98° |
| 2026-05-04 08:16 | 64.59750 | 40.71503 | 40 ft | 11 kts | 20° |
| 2026-05-04 08:16 | 64.59814 | 40.71565 | 40 ft | 9 kts | 64° |
| 2026-05-04 08:16 | 64.59814 | 40.71707 | 40 ft | 8 kts | 96° |
| 2026-05-04 08:17 | 64.59806 | 40.71876 | 40 ft | 14 kts | 96° |
| 2026-05-04 08:17 | 64.59793 | 40.72141 | 40 ft | 19 kts | 96° |
| 2026-05-04 08:17 | 64.59777 | 40.72472 | 40 ft | 22 kts | 96° |
| 2026-05-04 08:17 | 64.59758 | 40.72850 | 40 ft | 25 kts | 96° |
| 2026-05-04 08:19 | 64.59930 | 40.73681 | 35 ft | 59 kts | 277° |
| 2026-05-04 08:19 | 64.60003 | 40.72198 | 34 ft | 123 kts | 276° |
| 2026-05-04 08:20 | 64.60115 | 40.69853 | 204 ft | 159 kts | 276° |
| 2026-05-04 08:20 | 64.60246 | 40.67307 | 916 ft | 158 kts | 277° |
| 2026-05-04 08:20 | 64.60374 | 40.64735 | 1586 ft | 165 kts | 276° |
| 2026-05-04 08:20 | 64.60499 | 40.61968 | 2081 ft | 181 kts | 276° |
| 2026-05-04 08:21 | 64.60640 | 40.58893 | 2462 ft | 202 kts | 276° |
| 2026-05-04 08:21 | 64.60801 | 40.55490 | 2864 ft | 222 kts | 276° |
| 2026-05-04 08:21 | 64.60974 | 40.51739 | 3390 ft | 243 kts | 275° |
| 2026-05-04 08:21 | 64.60748 | 40.47774 | 4244 ft | 253 kts | 249° |
| 2026-05-04 08:22 | 64.59719 | 40.44442 | 5223 ft | 260 kts | 220° |
| 2026-05-04 08:22 | 64.58069 | 40.42650 | 6230 ft | 267 kts | 196° |
| 2026-05-04 08:24 | 64.44267 | 40.35613 | 11358 ft | 332 kts | 198° |
| 2026-05-04 08:24 | 64.41998 | 40.34451 | 12174 ft | 335 kts | 198° |
| 2026-05-04 08:24 | 64.39714 | 40.33290 | 12991 ft | 338 kts | 199° |
| 2026-05-04 08:24 | 64.37410 | 40.32125 | 13772 ft | 341 kts | 199° |
| 2026-05-04 08:25 | 64.35079 | 40.30944 | 14449 ft | 344 kts | 199° |
| 2026-05-04 08:25 | 64.32725 | 40.29755 | 15146 ft | 348 kts | 200° |
| 2026-05-04 08:25 | 64.30353 | 40.28557 | 15794 ft | 351 kts | 200° |
| 2026-05-04 08:25 | 64.27953 | 40.27341 | 16465 ft | 355 kts | 200° |
| 2026-05-04 08:26 | 64.25533 | 40.26117 | 17129 ft | 358 kts | 201° |
| 2026-05-04 08:27 | 64.07915 | 40.17291 | 21087 ft | 382 kts | 201° |
| 2026-05-04 08:28 | 64.05315 | 40.15997 | 21598 ft | 385 kts | 201° |
| 2026-05-04 08:28 | 64.02680 | 40.14683 | 22122 ft | 388 kts | 201° |
| 2026-05-04 08:28 | 64.00033 | 40.13369 | 22633 ft | 391 kts | 202° |
| 2026-05-04 08:28 | 63.97363 | 40.12049 | 23074 ft | 394 kts | 201° |
| 2026-05-04 08:29 | 63.94670 | 40.10718 | 23542 ft | 398 kts | 201° |
| 2026-05-04 08:29 | 63.91953 | 40.09375 | 23947 ft | 401 kts | 201° |
| 2026-05-04 08:29 | 63.89219 | 40.08032 | 24358 ft | 404 kts | 201° |
| 2026-05-04 08:31 | 63.69604 | 39.98473 | 27080 ft | 422 kts | 201° |
| 2026-05-04 08:33 | 63.49119 | 39.88621 | 29494 ft | 439 kts | 200° |
| 2026-05-04 08:33 | 63.46125 | 39.87194 | 29779 ft | 441 kts | 199° |
| 2026-05-04 08:35 | 63.24869 | 39.77160 | 31977 ft | 445 kts | 199° |
| 2026-05-04 08:35 | 63.21838 | 39.75735 | 32345 ft | 445 kts | 199° |
| 2026-05-04 08:35 | 63.18813 | 39.74321 | 32714 ft | 444 kts | 199° |
| 2026-05-04 08:35 | 63.15796 | 39.72909 | 33086 ft | 443 kts | 199° |
| 2026-05-04 08:37 | 62.97863 | 39.64636 | 33845 ft | 435 kts | 199° |
| 2026-05-04 08:37 | 62.94907 | 39.63280 | 33845 ft | 434 kts | 199° |
| 2026-05-04 08:38 | 62.88982 | 39.60560 | 33846 ft | 436 kts | 199° |
| 2026-05-04 08:38 | 62.83044 | 39.57846 | 33845 ft | 436 kts | 199° |
| 2026-05-04 08:40 | 62.59298 | 39.47122 | 33803 ft | 436 kts | 199° |
| 2026-05-04 08:41 | 62.53371 | 39.44469 | 33812 ft | 436 kts | 199° |
| 2026-05-04 08:41 | 62.47429 | 39.41810 | 33827 ft | 436 kts | 199° |
| 2026-05-04 08:42 | 62.41483 | 39.39171 | 33832 ft | 436 kts | 199° |
| 2026-05-04 08:42 | 62.35532 | 39.36538 | 33832 ft | 436 kts | 199° |
| 2026-05-04 08:43 | 62.29582 | 39.33915 | 33831 ft | 437 kts | 199° |
| 2026-05-04 08:43 | 62.23622 | 39.31304 | 33818 ft | 437 kts | 199° |
| 2026-05-04 08:44 | 62.17660 | 39.28704 | 33823 ft | 438 kts | 198° |
| 2026-05-04 08:46 | 61.93761 | 39.18370 | 33838 ft | 438 kts | 198° |
| 2026-05-04 08:46 | 61.88791 | 39.16262 | 33806 ft | 438 kts | 198° |
| 2026-05-04 08:47 | 61.82808 | 39.13719 | 33822 ft | 438 kts | 198° |
| 2026-05-04 08:47 | 61.75812 | 39.10731 | 33828 ft | 439 kts | 199° |
| 2026-05-04 08:48 | 61.69872 | 39.08205 | 33825 ft | 439 kts | 198° |
| 2026-05-04 08:48 | 61.64851 | 39.06097 | 33813 ft | 439 kts | 198° |
| 2026-05-04 08:49 | 61.58857 | 39.03586 | 33787 ft | 440 kts | 198° |
| 2026-05-04 08:50 | 61.37746 | 38.94818 | 33843 ft | 442 kts | 198° |
| 2026-05-04 08:51 | 61.31704 | 38.92326 | 33843 ft | 442 kts | 198° |
| 2026-05-04 08:51 | 61.25673 | 38.89856 | 33803 ft | 442 kts | 199° |
| 2026-05-04 08:52 | 61.19630 | 38.87374 | 33824 ft | 443 kts | 199° |
| 2026-05-04 08:52 | 61.13588 | 38.84895 | 33829 ft | 443 kts | 199° |
| 2026-05-04 08:54 | 60.89342 | 38.75111 | 33836 ft | 448 kts | 200° |
| 2026-05-04 08:55 | 60.83220 | 38.72671 | 33839 ft | 449 kts | 200° |
| 2026-05-04 08:55 | 60.77092 | 38.70232 | 33848 ft | 449 kts | 200° |
| 2026-05-04 09:01 | 60.12482 | 38.45076 | 33849 ft | 455 kts | 200° |
| 2026-05-04 09:01 | 60.06310 | 38.42731 | 33848 ft | 455 kts | 200° |
| 2026-05-04 09:02 | 60.00092 | 38.40372 | 33837 ft | 455 kts | 200° |
| 2026-05-04 09:02 | 59.93879 | 38.38031 | 33819 ft | 455 kts | 200° |
| 2026-05-04 09:03 | 59.87652 | 38.35691 | 33834 ft | 456 kts | 199° |
| 2026-05-04 09:03 | 59.81406 | 38.33350 | 33828 ft | 457 kts | 199° |
| 2026-05-04 09:04 | 59.75155 | 38.31009 | 33826 ft | 458 kts | 199° |
| 2026-05-04 09:04 | 59.68895 | 38.28676 | 33832 ft | 458 kts | 199° |
| 2026-05-04 09:05 | 59.62623 | 38.26360 | 33797 ft | 458 kts | 199° |
| 2026-05-04 09:05 | 59.56351 | 38.24041 | 33839 ft | 459 kts | 199° |
| 2026-05-04 09:06 | 59.50076 | 38.21721 | 33848 ft | 459 kts | 199° |
| 2026-05-04 09:08 | 59.24964 | 38.12589 | 33845 ft | 460 kts | 199° |
| 2026-05-04 09:08 | 59.18707 | 38.10330 | 33849 ft | 461 kts | 199° |
| 2026-05-04 09:09 | 59.12403 | 38.08046 | 33846 ft | 461 kts | 199° |
| 2026-05-04 09:09 | 59.06089 | 38.05783 | 33843 ft | 461 kts | 199° |
| 2026-05-04 09:10 | 58.99779 | 38.03534 | 33842 ft | 461 kts | 199° |
| 2026-05-04 09:10 | 58.93475 | 38.01291 | 33851 ft | 461 kts | 199° |
| 2026-05-04 09:11 | 58.87164 | 37.99062 | 33849 ft | 461 kts | 199° |
| 2026-05-04 09:11 | 58.80855 | 37.96832 | 33850 ft | 461 kts | 199° |
| 2026-05-04 09:12 | 58.74547 | 37.94614 | 33847 ft | 461 kts | 198° |
| 2026-05-04 09:14 | 58.48667 | 37.89698 | 33848 ft | 470 kts | 191° |
| 2026-05-04 09:14 | 58.42134 | 37.88825 | 33847 ft | 470 kts | 191° |
| 2026-05-04 09:15 | 58.35608 | 37.87959 | 33838 ft | 470 kts | 191° |
| 2026-05-04 09:15 | 58.29088 | 37.87087 | 33827 ft | 469 kts | 191° |
| 2026-05-04 09:17 | 57.99775 | 37.83191 | 33153 ft | 472 kts | 189° |
| 2026-05-04 09:18 | 57.96499 | 37.82770 | 32881 ft | 472 kts | 189° |
| 2026-05-04 09:18 | 57.93233 | 37.82350 | 32623 ft | 472 kts | 189° |
| 2026-05-04 09:18 | 57.89953 | 37.81922 | 32345 ft | 472 kts | 189° |
| 2026-05-04 09:18 | 57.86682 | 37.81488 | 31935 ft | 470 kts | 189° |
| 2026-05-04 09:19 | 57.83425 | 37.81059 | 31272 ft | 467 kts | 189° |
| 2026-05-04 09:19 | 57.80196 | 37.80633 | 30656 ft | 463 kts | 189° |
| 2026-05-04 09:19 | 57.76998 | 37.80192 | 30047 ft | 460 kts | 189° |
| 2026-05-04 09:19 | 57.73813 | 37.79731 | 29384 ft | 457 kts | 189° |
| 2026-05-04 09:20 | 57.70666 | 37.79268 | 28795 ft | 451 kts | 189° |
| 2026-05-04 09:20 | 57.67552 | 37.78815 | 28172 ft | 447 kts | 188° |
| 2026-05-04 09:20 | 57.64468 | 37.78370 | 27623 ft | 441 kts | 188° |
| 2026-05-04 09:20 | 57.61419 | 37.77935 | 27045 ft | 437 kts | 188° |
| 2026-05-04 09:21 | 57.58402 | 37.77510 | 26477 ft | 433 kts | 189° |
| 2026-05-04 09:21 | 57.55409 | 37.77090 | 25929 ft | 429 kts | 189° |
| 2026-05-04 09:21 | 57.52449 | 37.76672 | 25383 ft | 425 kts | 189° |
| 2026-05-04 09:21 | 57.49558 | 37.76263 | 24865 ft | 421 kts | 189° |
| 2026-05-04 09:22 | 57.46654 | 37.75849 | 24346 ft | 416 kts | 189° |
| 2026-05-04 09:22 | 57.43775 | 37.75452 | 23838 ft | 412 kts | 189° |
| 2026-05-04 09:22 | 57.40930 | 37.75076 | 23339 ft | 408 kts | 189° |
| 2026-05-04 09:22 | 57.38112 | 37.74714 | 22803 ft | 404 kts | 188° |
| 2026-05-04 09:23 | 57.35325 | 37.74360 | 22321 ft | 399 kts | 188° |
| 2026-05-04 09:23 | 57.32580 | 37.74015 | 21881 ft | 392 kts | 188° |
| 2026-05-04 09:23 | 57.29870 | 37.73674 | 21415 ft | 388 kts | 188° |
| 2026-05-04 09:23 | 57.27192 | 37.73336 | 20941 ft | 384 kts | 188° |
| 2026-05-04 09:25 | 57.09047 | 37.70620 | 17828 ft | 361 kts | 195° |
| 2026-05-04 09:25 | 57.06595 | 37.69764 | 17342 ft | 358 kts | 195° |
| 2026-05-04 09:26 | 57.04155 | 37.68915 | 16888 ft | 356 kts | 194° |
| 2026-05-04 09:26 | 57.01730 | 37.68075 | 16444 ft | 352 kts | 194° |
| 2026-05-04 09:26 | 56.99331 | 37.67248 | 16011 ft | 350 kts | 194° |
| 2026-05-04 09:26 | 56.96925 | 37.66559 | 15558 ft | 350 kts | 188° |
| 2026-05-04 09:27 | 56.94515 | 37.66247 | 15307 ft | 346 kts | 187° |
| 2026-05-04 09:27 | 56.92118 | 37.65989 | 15067 ft | 344 kts | 187° |
| 2026-05-04 09:27 | 56.89730 | 37.65757 | 14817 ft | 343 kts | 187° |
| 2026-05-04 09:27 | 56.87353 | 37.65530 | 14570 ft | 341 kts | 187° |
| 2026-05-04 09:28 | 56.84984 | 37.65302 | 14328 ft | 340 kts | 187° |
| 2026-05-04 09:28 | 56.82621 | 37.65068 | 14087 ft | 339 kts | 187° |
| 2026-05-04 09:28 | 56.80271 | 37.64829 | 13851 ft | 338 kts | 187° |
| 2026-05-04 09:28 | 56.77935 | 37.64587 | 13607 ft | 337 kts | 187° |
| 2026-05-04 09:29 | 56.75595 | 37.64338 | 13332 ft | 337 kts | 187° |
| 2026-05-04 09:29 | 56.73262 | 37.64091 | 13061 ft | 335 kts | 187° |
| 2026-05-04 09:29 | 56.70940 | 37.63856 | 12810 ft | 333 kts | 187° |
| 2026-05-04 09:29 | 56.68627 | 37.63627 | 12541 ft | 332 kts | 187° |
| 2026-05-04 09:30 | 56.66334 | 37.63400 | 12275 ft | 330 kts | 187° |
| 2026-05-04 09:30 | 56.64041 | 37.63171 | 12011 ft | 329 kts | 187° |
| 2026-05-04 09:30 | 56.61762 | 37.62939 | 11764 ft | 328 kts | 187° |
| 2026-05-04 09:30 | 56.59486 | 37.62707 | 11511 ft | 326 kts | 187° |
| 2026-05-04 09:31 | 56.57227 | 37.62480 | 11267 ft | 325 kts | 187° |
| 2026-05-04 09:31 | 56.54994 | 37.62377 | 11020 ft | 326 kts | 179° |
| 2026-05-04 09:31 | 56.52712 | 37.62843 | 10771 ft | 325 kts | 177° |
| 2026-05-04 09:31 | 56.50497 | 37.63315 | 10530 ft | 324 kts | 177° |
| 2026-05-04 09:32 | 56.48264 | 37.63792 | 10284 ft | 323 kts | 177° |
| 2026-05-04 09:32 | 56.46037 | 37.64270 | 10046 ft | 322 kts | 177° |
| 2026-05-04 09:34 | 56.31459 | 37.67364 | 8628 ft | 294 kts | 177° |
| 2026-05-04 09:34 | 56.29436 | 37.67793 | 8297 ft | 292 kts | 177° |
| 2026-05-04 09:34 | 56.27429 | 37.68218 | 7968 ft | 290 kts | 177° |
| 2026-05-04 09:34 | 56.25425 | 37.68644 | 7640 ft | 289 kts | 177° |
| 2026-05-04 09:35 | 56.23441 | 37.69066 | 7317 ft | 288 kts | 177° |
| 2026-05-04 09:35 | 56.21453 | 37.69488 | 6914 ft | 287 kts | 177° |
| 2026-05-04 09:35 | 56.19461 | 37.69906 | 6431 ft | 289 kts | 177° |
| 2026-05-04 09:35 | 56.17475 | 37.70325 | 6012 ft | 288 kts | 177° |
| 2026-05-04 09:37 | 56.04570 | 37.70926 | 4083 ft | 230 kts | 222° |
| 2026-05-04 09:37 | 56.03423 | 37.69088 | 3883 ft | 222 kts | 227° |
| 2026-05-04 09:38 | 56.02290 | 37.67195 | 3546 ft | 217 kts | 226° |
| 2026-05-04 09:38 | 56.01209 | 37.65392 | 3175 ft | 213 kts | 228° |
| 2026-05-04 09:38 | 56.00372 | 37.63227 | 2758 ft | 209 kts | 252° |
| 2026-05-04 09:38 | 56.00106 | 37.61583 | 2532 ft | 207 kts | 256° |
| 2026-05-04 09:39 | 55.99751 | 37.59149 | 2292 ft | 199 kts | 256° |
| 2026-05-04 09:39 | 55.99407 | 37.56811 | 2028 ft | 189 kts | 256° |
| 2026-05-04 09:39 | 55.99092 | 37.54673 | 1802 ft | 168 kts | 256° |
| 2026-05-04 09:39 | 55.98809 | 37.52756 | 1596 ft | 154 kts | 255° |
| 2026-05-04 09:40 | 55.98470 | 37.50463 | 1335 ft | 137 kts | 256° |
| 2026-05-04 09:40 | 55.98308 | 37.49371 | 1227 ft | 132 kts | 257° |
| 2026-05-04 09:40 | 55.98072 | 37.47777 | 1056 ft | 134 kts | 255° |
| 2026-05-04 09:40 | 55.97836 | 37.46178 | 876 ft | 130 kts | 257° |
| 2026-05-04 09:41 | 55.97611 | 37.44597 | 691 ft | 131 kts | 255° |
| 2026-05-04 09:42 | 55.97430 | 37.41220 | 644 ft | 14 kts | 345° |
| 2026-05-04 09:43 | 55.97494 | 37.41190 | 641 ft | 7 kts | 345° |
| 2026-05-04 09:43 | 55.97536 | 37.41216 | 639 ft | 6 kts | 49° |
| 2026-05-04 09:43 | 55.97549 | 37.41281 | 639 ft | 5 kts | 76° |
| 2026-05-04 09:43 | 55.97561 | 37.41363 | 644 ft | 8 kts | 76° |
| 2026-05-04 09:44 | 55.97576 | 37.41470 | 646 ft | 9 kts | 75° |
| 2026-05-04 09:44 | 55.97599 | 37.41582 | 641 ft | 10 kts | 50° |
| 2026-05-04 09:44 | 55.97676 | 37.41584 | 639 ft | 14 kts | 345° |
| 2026-05-04 09:46 | 55.97839 | 37.41634 | 639 ft | 0 kts | 75° |